Hauptseite
METAR-TAF:

METAR-TAF

Flughäfen :

RAF Linton-on-Ouse

Linton-on-Ouse, England

Breite: 54-03N, Länge: 001-15W, Höhe: 16 m

Beobachtung

Neuester Wetterbericht von vor 34 Minuten, um 23:50 UTC
Wind 4 kt aus Südost
Temperatur 7°C
Luftfeuchtigkeit 93%
Luftdruck 1005 hPa
Sichtweite: 3200 m

METAR: EGXU 232350Z AUTO 13004KT 3200 // FEW180/// 07/06 Q1005

Zeit: 01:24 (00:24 UTC)

Prognose

Neuester Wetterbericht von vor 11 Stunden und 8 Minuten, um 13:16 UTC
Gültige Prognose vom 23 um 15 UTC bis 23 um 18 UTC
Wind 10 kt aus Süd
Sichtweite 10 km oder mehr
Leicht bewölkt in der Höhe von 4000 ft

TAF: EGXU 231316Z 2315/2318 17010KT 9999 FEW040

Wetterbeobachtungen und Prognosen von mehr als 4000 Flughäfen (METAR und TAF Bericht).

Die verfügbaren Stationen werden durch gelbe und rote Markierungen auf der Karte dargestellt.

Führen Sie die Maus auf sie, um den Namen der Station zu sehen.

Darauf klicken, um die Beobachtung von Wetterbeobachtungen und Prognosen zu sehen.

Um die Karte zu ändern : klicken Sie auf den grünen Tasten mit einem schwarzen Kreuz Zum Vergrößern, auf den grünen Button mit einem Gedankenstrich zu verkleinern, oder auf die grünen Pfeile für benachbarte Karten.


METAR-TAF: